createdAt,value
2018-12-01T01:31:32.340Z,5.64
2018-12-01T01:31:32.913Z,5.64
2018-12-01T01:31:33.513Z,5.60
2018-12-01T01:31:34.112Z,5.63
2018-12-01T01:31:34.713Z,5.63
2018-12-01T01:31:35.311Z,5.60
2018-12-01T01:31:35.914Z,5.63
2018-12-01T01:31:36.511Z,5.56
2018-12-01T01:32:29.992Z,5.59
2018-12-01T01:32:30.566Z,5.66
2018-12-01T01:32:31.166Z,5.52
2018-12-01T01:32:31.766Z,5.67
2018-12-01T01:32:32.366Z,5.63
2018-12-01T01:32:32.965Z,5.56
2018-12-01T01:32:33.565Z,5.57
2018-12-01T01:32:34.164Z,5.52
2018-12-01T01:33:27.645Z,5.56
2018-12-01T01:33:28.221Z,5.49
2018-12-01T01:33:28.819Z,5.57
2018-12-01T01:33:29.419Z,5.57
2018-12-01T01:33:30.017Z,5.55
2018-12-01T01:33:30.617Z,5.66
2018-12-01T01:33:31.215Z,5.63
2018-12-01T01:33:31.815Z,5.56
2018-12-01T01:34:25.297Z,5.59
2018-12-01T01:34:25.871Z,5.56
2018-12-01T01:34:26.470Z,5.56
2018-12-01T01:34:27.070Z,5.59
2018-12-01T01:34:27.669Z,5.57
2018-12-01T01:34:28.269Z,5.57
2018-12-01T01:34:28.870Z,5.56
2018-12-01T01:34:29.470Z,5.52
2018-12-01T01:35:24.010Z,5.50
2018-12-01T01:35:24.547Z,5.64
2018-12-01T01:35:25.146Z,5.60
2018-12-01T01:35:25.745Z,5.59
2018-12-01T01:35:26.345Z,5.59
2018-12-01T01:35:26.945Z,5.55
2018-12-01T01:35:27.544Z,5.60
2018-12-01T01:35:28.146Z,5.64
2018-12-01T01:36:22.653Z,5.59
2018-12-01T01:36:23.221Z,5.63
2018-12-01T01:36:23.824Z,5.59
2018-12-01T01:36:24.422Z,5.57
2018-12-01T01:36:25.021Z,5.50
2018-12-01T01:36:25.621Z,5.59
2018-12-01T01:36:26.224Z,5.63
2018-12-01T01:36:26.821Z,5.60
2018-12-01T01:37:20.304Z,5.50
2018-12-01T01:37:20.875Z,5.66
2018-12-01T01:37:21.476Z,5.66
2018-12-01T01:37:22.077Z,5.59
2018-12-01T01:37:22.674Z,5.60
2018-12-01T01:37:23.276Z,5.67
2018-12-01T01:37:23.874Z,5.57
2018-12-01T01:37:24.474Z,5.63
2018-12-01T01:38:18.977Z,5.64
2018-12-01T01:38:19.551Z,5.57
2018-12-01T01:38:20.149Z,5.64
2018-12-01T01:38:20.749Z,5.59
2018-12-01T01:38:21.351Z,5.63
2018-12-01T01:38:21.949Z,5.63
2018-12-01T01:38:22.549Z,5.60
2018-12-01T01:38:23.151Z,5.67
2018-12-01T01:39:17.653Z,5.73
2018-12-01T01:39:18.226Z,5.64
2018-12-01T01:39:18.826Z,5.66
2018-12-01T01:39:19.428Z,5.60
2018-12-01T01:39:20.026Z,5.68
2018-12-01T01:39:20.625Z,5.64
2018-12-01T01:39:21.225Z,5.68
2018-12-01T01:39:21.825Z,5.67
2018-12-01T01:40:15.314Z,5.67
2018-12-01T01:40:15.880Z,5.70
2018-12-01T01:40:16.484Z,5.67
2018-12-01T01:40:17.081Z,5.67
2018-12-01T01:40:17.678Z,5.75
2018-12-01T01:40:18.282Z,5.74
2018-12-01T01:40:18.877Z,5.68
2018-12-01T01:40:19.477Z,5.70
2018-12-01T01:41:14.006Z,5.70
2018-12-01T01:41:14.554Z,5.81
2018-12-01T01:41:15.153Z,5.73
2018-12-01T01:41:15.753Z,5.77
2018-12-01T01:41:16.353Z,5.71
2018-12-01T01:41:16.953Z,5.78
2018-12-01T01:41:17.554Z,5.73
2018-12-01T01:41:18.153Z,5.75
2018-12-01T01:42:23.309Z,5.74
2018-12-01T01:42:23.880Z,5.83
2018-12-01T01:42:24.483Z,5.74
2018-12-01T01:42:25.081Z,5.83
2018-12-01T01:42:25.680Z,5.75
2018-12-01T01:42:26.280Z,5.83
2018-12-01T01:42:26.881Z,5.82
2018-12-01T01:42:27.480Z,5.78
2018-12-01T01:43:21.985Z,5.74
2018-12-01T01:43:22.556Z,5.82
2018-12-01T01:43:23.154Z,5.82
2018-12-01T01:43:23.761Z,5.78
2018-12-01T01:43:24.356Z,5.82
2018-12-01T01:43:24.956Z,5.92
2018-12-01T01:43:25.555Z,5.83
2018-12-01T01:43:26.154Z,5.89
2018-12-01T01:44:20.667Z,5.86
2018-12-01T01:44:21.230Z,5.83
2018-12-01T01:44:21.841Z,5.83
2018-12-01T01:44:22.475Z,5.86
2018-12-01T01:44:23.030Z,5.88
2018-12-01T01:44:23.631Z,5.88
2018-12-01T01:44:24.230Z,5.88
2018-12-01T01:44:24.832Z,5.88
2018-12-01T01:45:19.334Z,5.82
2018-12-01T01:45:19.909Z,5.82
2018-12-01T01:45:20.509Z,5.93
2018-12-01T01:45:21.107Z,5.88
2018-12-01T01:45:21.705Z,5.82
2018-12-01T01:45:22.306Z,5.85
2018-12-01T01:45:22.906Z,5.88
2018-12-01T01:45:23.505Z,6.01
2018-12-01T01:46:18.010Z,5.88
2018-12-01T01:46:18.583Z,5.92
2018-12-01T01:46:19.183Z,5.86
2018-12-01T01:46:19.782Z,5.98
2018-12-01T01:46:20.381Z,6.00
2018-12-01T01:46:20.981Z,6.04
2018-12-01T01:46:21.582Z,6.00
2018-12-01T01:46:22.180Z,6.00
2018-12-01T01:47:16.686Z,6.01
2018-12-01T01:47:17.259Z,6.00
2018-12-01T01:47:17.858Z,5.98
2018-12-01T01:47:18.458Z,6.00
2018-12-01T01:47:19.062Z,5.91
2018-12-01T01:47:19.659Z,5.95
2018-12-01T01:47:20.258Z,5.96
2018-12-01T01:47:20.858Z,5.93
2018-12-01T01:48:15.361Z,5.89
2018-12-01T01:48:15.935Z,5.95
2018-12-01T01:48:16.534Z,5.98
2018-12-01T01:48:17.135Z,5.96
2018-12-01T01:48:17.734Z,6.00
2018-12-01T01:48:18.333Z,5.98
2018-12-01T01:48:18.934Z,5.98
2018-12-01T01:48:19.533Z,6.00
2018-12-01T01:49:13.015Z,5.96
2018-12-01T01:49:13.586Z,5.98
2018-12-01T01:49:14.186Z,5.98
2018-12-01T01:49:14.786Z,5.96
2018-12-01T01:49:15.387Z,5.92
2018-12-01T01:49:15.987Z,5.96
2018-12-01T01:49:16.587Z,5.95
2018-12-01T01:49:17.185Z,5.96
2018-12-01T01:50:10.666Z,6.01
2018-12-01T01:50:11.239Z,6.00
2018-12-01T01:50:11.841Z,6.04
2018-12-01T01:50:12.477Z,6.04
2018-12-01T01:50:13.038Z,6.04
2018-12-01T01:50:13.640Z,6.03
2018-12-01T01:50:14.238Z,6.06
2018-12-01T01:50:14.839Z,6.01
2018-12-01T01:51:08.317Z,6.03
2018-12-01T01:51:08.890Z,6.04
2018-12-01T01:51:09.491Z,6.11
2018-12-01T01:51:10.091Z,6.07
2018-12-01T01:51:10.692Z,6.06
2018-12-01T01:51:11.290Z,6.04
2018-12-01T01:51:11.890Z,6.06
2018-12-01T01:51:12.491Z,6.06
2018-12-01T01:52:06.996Z,6.03
2018-12-01T01:52:07.565Z,6.06
2018-12-01T01:52:08.165Z,6.06
2018-12-01T01:52:08.765Z,6.09
2018-12-01T01:52:09.364Z,6.03
2018-12-01T01:52:09.964Z,6.03
2018-12-01T01:52:10.564Z,6.01
2018-12-01T01:52:11.163Z,6.04
2018-12-01T01:53:05.669Z,6.07
2018-12-01T01:53:06.242Z,6.09
2018-12-01T01:53:06.841Z,6.22
2018-12-01T01:53:07.442Z,6.13
2018-12-01T01:53:08.042Z,6.07
2018-12-01T01:53:08.640Z,6.03
2018-12-01T01:53:09.239Z,6.13
2018-12-01T01:53:09.841Z,6.04
2018-12-01T01:54:04.344Z,6.09
2018-12-01T01:54:04.918Z,6.07
2018-12-01T01:54:05.519Z,6.07
2018-12-01T01:54:06.118Z,6.04
2018-12-01T01:54:06.717Z,6.06
2018-12-01T01:54:07.318Z,6.10
2018-12-01T01:54:07.918Z,6.09
2018-12-01T01:54:08.521Z,6.07
2018-12-01T01:55:01.997Z,6.09
2018-12-01T01:55:02.571Z,6.11
2018-12-01T01:55:03.171Z,6.07
2018-12-01T01:55:03.771Z,6.10
2018-12-01T01:55:04.369Z,6.06
2018-12-01T01:55:04.970Z,6.07
2018-12-01T01:55:05.569Z,6.07
2018-12-01T01:55:06.169Z,6.06
2018-12-01T01:55:59.649Z,6.04
2018-12-01T01:56:00.223Z,6.06
2018-12-01T01:56:00.820Z,6.06
2018-12-01T01:56:01.421Z,6.03
2018-12-01T01:56:02.023Z,6.06
2018-12-01T01:56:02.621Z,6.11
2018-12-01T01:56:03.228Z,6.07
2018-12-01T01:56:03.820Z,6.10
2018-12-01T01:56:57.301Z,6.07
2018-12-01T01:56:57.875Z,6.10
2018-12-01T01:56:58.474Z,6.09
2018-12-01T01:56:59.076Z,6.10
2018-12-01T01:56:59.673Z,6.04
2018-12-01T01:57:00.272Z,6.03
2018-12-01T01:57:00.873Z,6.09
2018-12-01T01:57:01.473Z,6.09
2018-12-01T01:57:55.975Z,6.06
2018-12-01T01:57:56.548Z,6.11
2018-12-01T01:57:57.148Z,6.01
2018-12-01T01:57:57.747Z,6.03
2018-12-01T01:57:58.349Z,6.10
2018-12-01T01:57:58.947Z,6.06
2018-12-01T01:57:59.547Z,6.06
2018-12-01T01:58:00.147Z,6.10
2018-12-01T01:58:54.653Z,6.04
2018-12-01T01:58:55.224Z,6.11
2018-12-01T01:58:55.824Z,6.09
2018-12-01T01:58:56.428Z,6.07
2018-12-01T01:58:57.024Z,6.01
2018-12-01T01:58:57.623Z,6.07
2018-12-01T01:58:58.227Z,6.06
2018-12-01T01:58:58.824Z,6.07
2018-12-01T01:59:53.333Z,6.04
2018-12-01T01:59:53.901Z,6.07
2018-12-01T01:59:54.499Z,6.06
2018-12-01T01:59:55.099Z,6.03
2018-12-01T01:59:55.701Z,6.06
2018-12-01T01:59:56.299Z,6.07
2018-12-01T01:59:56.898Z,6.09
2018-12-01T01:59:57.498Z,6.06
2018-12-01T02:00:50.980Z,6.04
2018-12-01T02:00:51.552Z,6.07
2018-12-01T02:00:52.152Z,6.07
2018-12-01T02:00:52.752Z,6.14
2018-12-01T02:00:53.352Z,6.07
2018-12-01T02:00:53.951Z,6.09
2018-12-01T02:00:54.552Z,6.09
2018-12-01T02:00:55.151Z,6.11
2018-12-01T02:01:49.656Z,6.04
2018-12-01T02:01:50.227Z,6.09
2018-12-01T02:01:50.828Z,6.10
2018-12-01T02:01:51.426Z,6.06
2018-12-01T02:01:52.029Z,6.11
2018-12-01T02:01:52.626Z,6.10
2018-12-01T02:01:53.226Z,6.10
2018-12-01T02:01:53.826Z,6.06
2018-12-01T02:02:47.311Z,6.10
2018-12-01T02:02:47.880Z,6.07
2018-12-01T02:02:48.477Z,6.06
2018-12-01T02:02:49.077Z,6.06
2018-12-01T02:02:49.680Z,6.06
2018-12-01T02:02:50.277Z,6.11
2018-12-01T02:02:50.877Z,6.06
2018-12-01T02:02:51.485Z,6.11
2018-12-01T02:03:44.959Z,6.04
2018-12-01T02:03:45.532Z,6.07
2018-12-01T02:03:46.131Z,6.07
2018-12-01T02:03:46.731Z,6.07
2018-12-01T02:03:47.331Z,6.04
2018-12-01T02:03:47.931Z,6.07
2018-12-01T02:03:48.532Z,6.19
2018-12-01T02:03:49.131Z,6.04
2018-12-01T02:04:42.605Z,6.06
2018-12-01T02:04:43.181Z,6.09
2018-12-01T02:04:43.779Z,6.09
2018-12-01T02:04:44.379Z,6.18
2018-12-01T02:04:44.980Z,6.19
2018-12-01T02:04:45.578Z,6.06
2018-12-01T02:04:46.178Z,6.06
2018-12-01T02:04:46.779Z,6.14
2018-12-01T02:05:41.281Z,6.13
2018-12-01T02:05:41.853Z,6.18
2018-12-01T02:05:42.455Z,6.14
2018-12-01T02:05:43.053Z,6.21
2018-12-01T02:05:43.654Z,6.21
2018-12-01T02:05:44.253Z,6.14
2018-12-01T02:05:44.853Z,6.14
2018-12-01T02:05:45.452Z,6.14
2018-12-01T02:06:38.930Z,6.26
2018-12-01T02:06:39.507Z,6.19
2018-12-01T02:06:40.106Z,6.22
2018-12-01T02:06:40.707Z,6.21
2018-12-01T02:06:41.309Z,6.22
2018-12-01T02:06:41.906Z,6.25
2018-12-01T02:06:42.506Z,6.22
2018-12-01T02:06:43.106Z,6.26
2018-12-01T02:07:37.608Z,6.16
2018-12-01T02:07:38.181Z,6.19
2018-12-01T02:07:38.781Z,6.26
2018-12-01T02:07:39.382Z,6.22
2018-12-01T02:07:39.982Z,6.19
2018-12-01T02:07:40.581Z,6.21
2018-12-01T02:07:41.181Z,6.19
2018-12-01T02:07:41.782Z,6.18
2018-12-01T02:08:35.259Z,6.18
2018-12-01T02:08:35.833Z,6.29
2018-12-01T02:08:36.432Z,6.28
2018-12-01T02:08:37.033Z,6.19
2018-12-01T02:08:37.632Z,6.29
2018-12-01T02:08:38.233Z,6.21
2018-12-01T02:08:38.832Z,6.25
2018-12-01T02:08:39.432Z,6.26
2018-12-01T02:09:32.910Z,6.22
2018-12-01T02:09:33.486Z,6.26
2018-12-01T02:09:34.086Z,6.21
2018-12-01T02:09:34.685Z,6.32
2018-12-01T02:09:35.285Z,6.28
2018-12-01T02:09:35.885Z,6.32
2018-12-01T02:09:36.483Z,6.25
2018-12-01T02:09:37.086Z,6.25
2018-12-01T02:10:31.587Z,6.26
2018-12-01T02:10:32.160Z,6.30
2018-12-01T02:10:32.759Z,6.28
2018-12-01T02:10:33.360Z,6.29
2018-12-01T02:10:33.959Z,6.25
2018-12-01T02:10:34.560Z,6.22
2018-12-01T02:10:35.160Z,6.32
2018-12-01T02:10:35.760Z,6.33
2018-12-01T02:11:30.262Z,6.21
2018-12-01T02:11:30.837Z,6.32
2018-12-01T02:11:31.435Z,6.32
2018-12-01T02:11:32.036Z,6.26
2018-12-01T02:11:32.635Z,6.30
2018-12-01T02:11:33.236Z,6.16
2018-12-01T02:11:33.835Z,6.18
2018-12-01T02:11:34.434Z,6.32
2018-12-01T02:12:28.937Z,6.33
2018-12-01T02:12:29.511Z,6.32
2018-12-01T02:12:30.111Z,6.35
2018-12-01T02:12:30.710Z,6.21
2018-12-01T02:12:31.311Z,6.21
2018-12-01T02:12:31.910Z,6.25
2018-12-01T02:12:32.511Z,6.26
2018-12-01T02:12:33.111Z,6.33
2018-12-01T02:13:27.613Z,6.26
2018-12-01T02:13:28.187Z,6.30
2018-12-01T02:13:28.788Z,6.19
2018-12-01T02:13:29.386Z,6.32
2018-12-01T02:13:29.986Z,6.35
2018-12-01T02:13:30.586Z,6.29
2018-12-01T02:13:31.186Z,6.25
2018-12-01T02:13:31.786Z,6.35
2018-12-01T02:14:26.290Z,6.32
2018-12-01T02:14:26.862Z,6.29
2018-12-01T02:14:27.463Z,6.30
2018-12-01T02:14:28.062Z,6.21
2018-12-01T02:14:28.662Z,6.14
2018-12-01T02:14:29.262Z,6.28
2018-12-01T02:14:29.863Z,6.22
2018-12-01T02:14:30.462Z,6.19
2018-12-01T02:15:23.943Z,6.29
2018-12-01T02:15:24.515Z,6.26
2018-12-01T02:15:25.115Z,6.32
2018-12-01T02:15:25.715Z,6.21
2018-12-01T02:15:26.316Z,6.29
2018-12-01T02:15:26.916Z,6.22
2018-12-01T02:15:27.515Z,6.33
2018-12-01T02:15:28.115Z,6.25
2018-12-01T02:16:22.618Z,6.19
2018-12-01T02:16:23.191Z,6.32
2018-12-01T02:16:24.506Z,6.32
2018-12-01T02:16:24.545Z,6.29
2018-12-01T02:16:24.991Z,6.30
2018-12-01T02:16:25.590Z,6.25
2018-12-01T02:16:26.190Z,6.28
2018-12-01T02:16:26.789Z,6.29
2018-12-01T02:17:21.292Z,6.26
2018-12-01T02:17:21.866Z,6.19
2018-12-01T02:17:22.472Z,6.35
2018-12-01T02:17:23.067Z,6.16
2018-12-01T02:17:23.666Z,6.29
2018-12-01T02:17:24.266Z,6.30
2018-12-01T02:17:24.866Z,6.19
2018-12-01T02:17:25.465Z,6.33
2018-12-01T02:18:19.973Z,6.36
2018-12-01T02:18:20.542Z,6.29
2018-12-01T02:18:21.142Z,6.28
2018-12-01T02:18:21.742Z,6.30
2018-12-01T02:18:22.353Z,6.28
2018-12-01T02:18:22.942Z,6.26
2018-12-01T02:18:23.542Z,6.26
2018-12-01T02:18:24.141Z,6.14
2018-12-01T02:19:17.620Z,6.14
2018-12-01T02:19:18.194Z,6.29
2018-12-01T02:19:18.796Z,6.25
2018-12-01T02:19:19.395Z,6.22
2018-12-01T02:19:20.000Z,6.28
2018-12-01T02:19:20.601Z,6.18
2018-12-01T02:19:21.202Z,6.21
2018-12-01T02:19:21.800Z,6.19
2018-12-01T02:20:16.295Z,6.26
2018-12-01T02:20:16.871Z,6.28
2018-12-01T02:20:17.469Z,6.29
2018-12-01T02:20:18.069Z,6.28
2018-12-01T02:20:18.669Z,6.30
2018-12-01T02:20:19.269Z,6.29
2018-12-01T02:20:19.870Z,6.32
2018-12-01T02:20:20.469Z,6.18
2018-12-01T02:21:13.947Z,6.30
2018-12-01T02:21:14.525Z,6.33
2018-12-01T02:21:15.123Z,6.22
2018-12-01T02:21:15.721Z,6.30
2018-12-01T02:21:16.323Z,6.18
2018-12-01T02:21:16.921Z,6.13
2018-12-01T02:21:17.521Z,6.32
2018-12-01T02:21:18.121Z,6.22
2018-12-01T02:22:11.599Z,6.26
2018-12-01T02:22:12.177Z,6.21
2018-12-01T02:22:12.774Z,6.30
2018-12-01T02:22:13.372Z,6.32
2018-12-01T02:22:13.972Z,6.19
2018-12-01T02:22:14.574Z,6.32
2018-12-01T02:22:15.173Z,6.21
2018-12-01T02:22:15.774Z,6.18
2018-12-01T02:23:10.277Z,6.32
2018-12-01T02:23:10.850Z,6.30
2018-12-01T02:23:11.449Z,6.30
2018-12-01T02:23:12.049Z,6.33
2018-12-01T02:23:12.648Z,6.32
2018-12-01T02:23:13.249Z,6.32
2018-12-01T02:23:13.849Z,6.32
2018-12-01T02:23:14.448Z,6.28
2018-12-01T02:24:08.951Z,6.30
2018-12-01T02:24:09.526Z,6.33
2018-12-01T02:24:10.125Z,6.32
2018-12-01T02:24:10.725Z,6.32
2018-12-01T02:24:11.324Z,6.33
2018-12-01T02:24:11.929Z,6.29
2018-12-01T02:24:12.524Z,6.25
2018-12-01T02:24:13.129Z,6.32
2018-12-01T02:25:07.627Z,6.29
2018-12-01T02:25:08.202Z,6.18
2018-12-01T02:25:08.800Z,6.30
2018-12-01T02:25:09.399Z,6.26
2018-12-01T02:25:10.001Z,6.26
2018-12-01T02:25:10.599Z,6.32
2018-12-01T02:25:11.199Z,6.18
2018-12-01T02:25:11.799Z,6.28
2018-12-01T02:26:06.304Z,6.26
2018-12-01T02:26:06.875Z,6.21
2018-12-01T02:26:07.479Z,6.32
2018-12-01T02:26:08.075Z,6.28
2018-12-01T02:26:08.677Z,6.16
2018-12-01T02:26:09.275Z,6.32
2018-12-01T02:26:09.873Z,6.30
2018-12-01T02:26:10.478Z,6.33
2018-12-01T02:27:04.977Z,6.28
2018-12-01T02:27:05.560Z,6.21
2018-12-01T02:27:06.150Z,6.25
2018-12-01T02:27:06.751Z,6.30
2018-12-01T02:27:07.349Z,6.33
2018-12-01T02:27:07.949Z,6.35
2018-12-01T02:27:08.549Z,6.26
2018-12-01T02:27:09.148Z,6.30
2018-12-01T02:28:03.653Z,6.35
2018-12-01T02:28:04.226Z,6.26
2018-12-01T02:28:04.827Z,6.18
2018-12-01T02:28:05.430Z,6.28
2018-12-01T02:28:06.028Z,6.35
2018-12-01T02:28:06.627Z,6.18
2018-12-01T02:28:07.227Z,6.30
2018-12-01T02:28:07.827Z,6.16
2018-12-01T02:29:01.305Z,6.28
2018-12-01T02:29:01.879Z,6.29
2018-12-01T02:29:02.480Z,6.33
2018-12-01T02:29:03.079Z,6.30
2018-12-01T02:29:03.681Z,6.30
2018-12-01T02:29:04.279Z,6.32
2018-12-01T02:29:04.879Z,6.26
2018-12-01T02:29:05.478Z,6.29
2018-12-01T02:29:59.984Z,6.22
2018-12-01T02:30:00.555Z,6.26
2018-12-01T02:30:01.168Z,6.28
2018-12-01T02:30:01.754Z,6.32
2018-12-01T02:30:02.354Z,6.26
2018-12-01T02:30:02.954Z,6.19
2018-12-01T02:30:03.553Z,6.29
2018-12-01T02:30:04.156Z,6.29
2018-12-01T02:30:57.633Z,6.22
2018-12-01T02:30:58.208Z,6.19
2018-12-01T02:30:58.809Z,6.19
2018-12-01T02:30:59.408Z,6.16
2018-12-01T02:31:00.007Z,6.19
2018-12-01T02:31:00.608Z,6.18
2018-12-01T02:31:01.209Z,6.22
2018-12-01T02:31:01.807Z,6.26
2018-12-01T02:31:55.283Z,6.25
2018-12-01T02:31:55.859Z,6.22
2018-12-01T02:31:56.459Z,6.19
2018-12-01T02:31:57.059Z,6.29
2018-12-01T02:31:57.659Z,6.26
2018-12-01T02:31:58.263Z,6.25
2018-12-01T02:31:58.859Z,6.22
2018-12-01T02:31:59.459Z,6.22
2018-12-01T02:32:53.960Z,6.22
2018-12-01T02:32:54.534Z,6.22
2018-12-01T02:32:55.133Z,6.30
2018-12-01T02:32:55.734Z,6.19
2018-12-01T02:32:56.333Z,6.26
2018-12-01T02:32:56.936Z,6.22
2018-12-01T02:32:57.533Z,6.18
2018-12-01T02:32:58.133Z,6.25
2018-12-01T02:33:51.610Z,6.19
2018-12-01T02:33:52.187Z,6.22
2018-12-01T02:33:52.787Z,6.25
2018-12-01T02:33:53.386Z,6.26
2018-12-01T02:33:53.986Z,6.22
2018-12-01T02:33:54.586Z,6.30
2018-12-01T02:33:55.185Z,6.26
2018-12-01T02:33:55.786Z,6.26
2018-12-01T02:34:49.270Z,6.18
2018-12-01T02:34:49.838Z,6.22
2018-12-01T02:34:50.438Z,6.30
2018-12-01T02:34:51.037Z,6.28
2018-12-01T02:34:51.637Z,6.21
2018-12-01T02:34:52.237Z,6.22
2018-12-01T02:34:52.843Z,6.30
2018-12-01T02:34:53.437Z,6.22
2018-12-01T02:35:46.915Z,6.26
2018-12-01T02:35:47.491Z,6.26
2018-12-01T02:35:48.091Z,6.18
2018-12-01T02:35:48.689Z,6.29
2018-12-01T02:35:49.289Z,6.25
2018-12-01T02:35:49.890Z,6.28
2018-12-01T02:35:50.490Z,6.30
2018-12-01T02:35:51.089Z,6.28
2018-12-01T02:36:44.566Z,6.21
2018-12-01T02:36:45.143Z,6.26
2018-12-01T02:36:45.744Z,6.22
2018-12-01T02:36:46.342Z,6.26
2018-12-01T02:36:46.942Z,6.25
2018-12-01T02:36:47.540Z,6.19
2018-12-01T02:36:48.140Z,6.16
2018-12-01T02:36:48.740Z,6.22
2018-12-01T02:37:43.244Z,6.18
2018-12-01T02:37:43.819Z,6.18
2018-12-01T02:37:44.417Z,6.29
2018-12-01T02:37:45.017Z,6.22
2018-12-01T02:37:45.617Z,6.22
2018-12-01T02:37:46.216Z,6.19
2018-12-01T02:37:46.816Z,6.29
2018-12-01T02:37:47.416Z,6.21
2018-12-01T02:38:40.893Z,6.22
2018-12-01T02:38:41.472Z,6.22
2018-12-01T02:38:42.069Z,6.22
2018-12-01T02:38:42.668Z,6.19
2018-12-01T02:38:43.269Z,6.25
2018-12-01T02:38:43.871Z,6.21
2018-12-01T02:38:44.469Z,6.21
2018-12-01T02:38:45.068Z,6.28
2018-12-01T02:39:38.545Z,6.18
2018-12-01T02:39:39.126Z,6.29
2018-12-01T02:39:39.719Z,6.26
2018-12-01T02:39:40.321Z,6.25
2018-12-01T02:39:40.920Z,6.25
2018-12-01T02:39:41.521Z,6.22
2018-12-01T02:39:42.120Z,6.19
2018-12-01T02:39:42.731Z,6.32
2018-12-01T02:40:37.223Z,6.29
2018-12-01T02:40:37.796Z,6.32
2018-12-01T02:40:38.396Z,6.29
2018-12-01T02:40:38.999Z,6.32
2018-12-01T02:40:39.596Z,6.22
2018-12-01T02:40:40.195Z,6.33
2018-12-01T02:40:40.795Z,6.32
2018-12-01T02:40:41.395Z,6.30
2018-12-01T02:41:34.873Z,6.22
2018-12-01T02:41:35.448Z,6.25
2018-12-01T02:41:36.048Z,6.25
2018-12-01T02:41:36.646Z,6.28
2018-12-01T02:41:37.247Z,6.18
2018-12-01T02:41:37.847Z,6.18
2018-12-01T02:41:38.446Z,6.22
2018-12-01T02:41:39.047Z,6.29
2018-12-01T02:42:32.525Z,6.30
2018-12-01T02:42:33.100Z,6.25
2018-12-01T02:42:33.702Z,6.21
2018-12-01T02:42:34.300Z,6.19
2018-12-01T02:42:34.900Z,6.29
2018-12-01T02:42:35.501Z,6.35
2018-12-01T02:42:36.099Z,6.28
2018-12-01T02:42:36.700Z,6.26
2018-12-01T02:43:31.203Z,6.32
2018-12-01T02:43:31.775Z,6.28
2018-12-01T02:43:32.375Z,6.19
2018-12-01T02:43:32.975Z,6.30
2018-12-01T02:43:33.573Z,6.28
2018-12-01T02:43:34.174Z,6.21
2018-12-01T02:43:34.774Z,6.26
2018-12-01T02:43:35.374Z,6.28
2018-12-01T02:44:29.876Z,6.35
2018-12-01T02:44:30.450Z,6.32
2018-12-01T02:44:31.057Z,6.30
2018-12-01T02:44:31.651Z,6.25
2018-12-01T02:44:32.250Z,6.21
2018-12-01T02:44:32.851Z,6.28
2018-12-01T02:44:33.450Z,6.33
2018-12-01T02:44:34.050Z,6.29
2018-12-01T02:45:27.529Z,6.21
2018-12-01T02:45:28.102Z,6.30
2018-12-01T02:45:28.703Z,6.30
2018-12-01T02:45:29.304Z,6.35
2018-12-01T02:45:29.903Z,6.30
2018-12-01T02:45:30.504Z,6.29
2018-12-01T02:45:31.102Z,6.30
2018-12-01T02:45:31.702Z,6.28
2018-12-01T02:46:25.178Z,6.19
2018-12-01T02:46:25.755Z,6.32
2018-12-01T02:46:26.357Z,6.33
2018-12-01T02:46:26.955Z,6.19
2018-12-01T02:46:27.554Z,6.25
2018-12-01T02:46:28.155Z,6.32
2018-12-01T02:46:28.758Z,6.22
2018-12-01T02:46:29.354Z,6.29
2018-12-01T02:47:22.830Z,6.25
2018-12-01T02:47:23.407Z,6.26
2018-12-01T02:47:24.006Z,6.21
2018-12-01T02:47:24.608Z,6.16
2018-12-01T02:47:25.206Z,6.26
2018-12-01T02:47:25.806Z,6.30
2018-12-01T02:47:26.406Z,6.30
2018-12-01T02:47:27.006Z,6.30
2018-12-01T02:48:20.483Z,6.19
2018-12-01T02:48:21.059Z,6.29
2018-12-01T02:48:21.659Z,6.28
2018-12-01T02:48:22.258Z,6.33
2018-12-01T02:48:22.858Z,6.33
2018-12-01T02:48:23.457Z,6.29
2018-12-01T02:48:24.057Z,6.32
2018-12-01T02:48:24.661Z,6.19
2018-12-01T02:49:18.135Z,6.29
2018-12-01T02:49:18.709Z,6.26
2018-12-01T02:49:19.310Z,6.33
2018-12-01T02:49:19.910Z,6.18
2018-12-01T02:49:20.509Z,6.32
2018-12-01T02:49:21.111Z,6.28
2018-12-01T02:49:21.709Z,6.26
2018-12-01T02:49:22.311Z,6.32
2018-12-01T02:50:15.785Z,6.29
2018-12-01T02:50:16.362Z,6.32
2018-12-01T02:50:16.966Z,6.30
2018-12-01T02:50:17.596Z,6.32
2018-12-01T02:50:18.171Z,6.18
2018-12-01T02:50:18.761Z,6.30
2018-12-01T02:50:19.363Z,6.30
2018-12-01T02:50:19.963Z,6.19
2018-12-01T02:51:14.463Z,6.26
2018-12-01T02:51:15.036Z,6.18
2018-12-01T02:51:15.637Z,6.32
2018-12-01T02:51:16.241Z,6.29
2018-12-01T02:51:16.838Z,6.21
2018-12-01T02:51:17.436Z,6.16
2018-12-01T02:51:18.035Z,6.36
2018-12-01T02:51:18.637Z,6.28
2018-12-01T02:52:12.115Z,6.35
2018-12-01T02:52:12.689Z,6.30
2018-12-01T02:52:13.289Z,6.33
2018-12-01T02:52:13.889Z,6.25
2018-12-01T02:52:14.488Z,6.29
2018-12-01T02:52:15.090Z,6.32
2018-12-01T02:52:15.689Z,6.33
2018-12-01T02:52:16.287Z,6.28
2018-12-01T02:53:10.791Z,6.21
2018-12-01T02:53:11.367Z,6.29
2018-12-01T02:53:11.964Z,6.26
2018-12-01T02:53:12.563Z,6.28
2018-12-01T02:53:13.163Z,6.22
2018-12-01T02:53:13.764Z,6.33
2018-12-01T02:53:14.363Z,6.22
2018-12-01T02:53:14.963Z,6.30
2018-12-01T02:54:09.472Z,6.21
2018-12-01T02:54:10.040Z,6.22
2018-12-01T02:54:10.638Z,6.18
2018-12-01T02:54:11.238Z,6.19
2018-12-01T02:54:11.838Z,6.25
2018-12-01T02:54:12.442Z,6.25
2018-12-01T02:54:13.038Z,6.25
2018-12-01T02:54:13.638Z,6.26
2018-12-01T02:55:07.119Z,6.16
2018-12-01T02:55:07.693Z,6.22
2018-12-01T02:55:08.292Z,6.26
2018-12-01T02:55:08.893Z,6.33
2018-12-01T02:55:09.491Z,6.29
2018-12-01T02:55:10.091Z,6.25
2018-12-01T02:55:10.692Z,6.29
2018-12-01T02:55:11.291Z,6.26
2018-12-01T02:56:04.769Z,6.18
2018-12-01T02:56:05.347Z,6.28
2018-12-01T02:56:05.944Z,6.25
2018-12-01T02:56:06.543Z,6.28
2018-12-01T02:56:07.143Z,6.29
2018-12-01T02:56:07.745Z,6.32
2018-12-01T02:56:08.350Z,6.32
2018-12-01T02:56:08.943Z,6.22
2018-12-01T02:57:03.447Z,6.29
2018-12-01T02:57:04.019Z,6.33
2018-12-01T02:57:04.619Z,6.28
2018-12-01T02:57:05.219Z,6.26
2018-12-01T02:57:05.819Z,6.18
2018-12-01T02:57:06.421Z,6.28
2018-12-01T02:57:07.018Z,6.19
2018-12-01T02:57:07.618Z,6.28
2018-12-01T02:58:01.099Z,6.32
2018-12-01T02:58:01.671Z,6.35
2018-12-01T02:58:02.274Z,6.30
2018-12-01T02:58:02.871Z,6.28
2018-12-01T02:58:03.474Z,6.30
2018-12-01T02:58:04.072Z,6.33
2018-12-01T02:58:04.671Z,6.30
2018-12-01T02:58:05.270Z,6.29
2018-12-01T02:58:59.773Z,6.29
2018-12-01T02:59:00.347Z,6.32
2018-12-01T02:59:00.947Z,6.29
2018-12-01T02:59:01.546Z,6.35
2018-12-01T02:59:02.145Z,6.32
2018-12-01T02:59:02.746Z,6.28
2018-12-01T02:59:03.345Z,6.32
2018-12-01T02:59:03.945Z,6.29
2018-12-01T02:59:58.448Z,6.30
2018-12-01T02:59:59.021Z,6.32
2018-12-01T02:59:59.622Z,6.35
2018-12-01T03:00:00.222Z,6.32
2018-12-01T03:00:00.821Z,6.35
2018-12-01T03:00:01.422Z,6.19
2018-12-01T03:00:02.022Z,6.30
2018-12-01T03:00:02.621Z,6.29
2018-12-01T03:00:56.098Z,6.32
2018-12-01T03:00:56.674Z,6.18
2018-12-01T03:00:57.274Z,6.30
2018-12-01T03:00:57.874Z,6.25
2018-12-01T03:00:58.474Z,6.32
2018-12-01T03:00:59.076Z,6.30
2018-12-01T03:00:59.673Z,6.32
2018-12-01T03:01:00.272Z,6.30
2018-12-01T03:01:53.751Z,6.29
2018-12-01T03:01:54.327Z,6.28
2018-12-01T03:01:54.926Z,6.35
2018-12-01T03:01:55.525Z,6.29
2018-12-01T03:01:56.126Z,6.30
2018-12-01T03:01:56.725Z,6.29
2018-12-01T03:01:57.325Z,6.32
2018-12-01T03:01:57.925Z,6.30
2018-12-01T03:02:51.510Z,6.32
2018-12-01T03:02:52.083Z,6.29
2018-12-01T03:02:52.681Z,6.30
2018-12-01T03:02:53.281Z,6.29
2018-12-01T03:02:53.895Z,6.29
2018-12-01T03:02:54.480Z,6.29
2018-12-01T03:02:55.079Z,6.35
2018-12-01T03:02:55.678Z,6.30
2018-12-01T03:03:50.181Z,6.22
2018-12-01T03:03:50.755Z,6.22
2018-12-01T03:03:51.354Z,6.30
2018-12-01T03:03:51.953Z,6.32
2018-12-01T03:03:52.558Z,6.35
2018-12-01T03:03:53.155Z,6.29
2018-12-01T03:03:53.753Z,6.18
2018-12-01T03:03:54.354Z,6.30
2018-12-01T03:04:47.832Z,6.33
2018-12-01T03:04:48.410Z,6.30
2018-12-01T03:04:49.008Z,6.19
2018-12-01T03:04:49.608Z,6.30
2018-12-01T03:04:50.207Z,6.18
2018-12-01T03:04:50.807Z,6.30
2018-12-01T03:04:51.407Z,6.32
2018-12-01T03:04:52.006Z,6.29
2018-12-01T03:05:46.509Z,6.33
2018-12-01T03:05:47.083Z,6.28
2018-12-01T03:05:47.683Z,6.30
2018-12-01T03:05:48.283Z,6.30
2018-12-01T03:05:48.883Z,6.33
2018-12-01T03:05:49.483Z,6.35
2018-12-01T03:05:50.083Z,6.25
2018-12-01T03:05:50.683Z,6.28
2018-12-01T03:06:44.163Z,6.25
2018-12-01T03:06:44.737Z,6.22
2018-12-01T03:06:45.334Z,6.26
2018-12-01T03:06:45.935Z,6.35
2018-12-01T03:06:46.534Z,6.32
2018-12-01T03:06:47.134Z,6.32
2018-12-01T03:06:47.733Z,6.25
2018-12-01T03:06:48.334Z,6.29
2018-12-01T03:07:41.812Z,6.26
2018-12-01T03:07:42.386Z,6.36
2018-12-01T03:07:42.987Z,6.35
2018-12-01T03:07:43.587Z,6.33
2018-12-01T03:07:44.187Z,6.35
2018-12-01T03:07:44.789Z,6.29
2018-12-01T03:07:45.385Z,6.29